Time;durP1;ratioP1;P1;durP2;ratioP2;P2;SDS_P1;SDS_P2;PMS_P1;PMS_P2;Temp;Humidity;BMP_temperature;BMP_pressure;BME280_temperature;BME280_humidity;BME280_pressure;Samples;Min_cycle;Max_cycle;Signal;HPM_P1;HPM_P2
2021/12/10 00:02:04;;;;;;;11.90;4.73;;;4.80;99.90;;;;;;10424039;28;20220;-72
2021/12/10 00:07:11;;;;;;;9.23;4.53;;;4.90;99.90;;;;;;10414299;28;20259;-71
2021/12/10 00:12:18;;;;;;;9.27;4.30;;;4.90;99.90;;;;;;10412385;28;20289;-71
2021/12/10 00:17:21;;;;;;;8.77;4.23;;;5.00;99.90;;;;;;10390716;28;20232;-71
2021/12/10 00:22:26;;;;;;;13.43;4.60;;;5.00;99.90;;;;;;10413467;28;20223;-71
2021/12/10 00:27:29;;;;;;;11.80;4.17;;;5.00;99.90;;;;;;10412310;28;20232;-71
2021/12/10 00:32:35;;;;;;;14.67;4.97;;;5.00;99.90;;;;;;10406726;28;20223;-71
2021/12/10 00:37:36;;;;;;;10.70;3.70;;;5.00;99.90;;;;;;10412790;28;20238;-71
2021/12/10 00:42:37;;;;;;;11.37;4.07;;;5.00;99.90;;;;;;10404336;28;20304;-71
2021/12/10 00:47:38;;;;;;;14.87;5.00;;;5.00;99.90;;;;;;10412047;28;20228;-73
2021/12/10 00:52:42;;;;;;;11.33;4.13;;;5.00;99.90;;;;;;10410897;28;20699;-70
2021/12/10 00:57:43;;;;;;;11.60;4.67;;;5.00;99.90;;;;;;10409237;28;20221;-70
2021/12/10 01:02:44;;;;;;;8.17;3.63;;;5.00;99.90;;;;;;10384382;28;20217;-71
2021/12/10 01:07:46;;;;;;;13.43;4.30;;;5.00;99.90;;;;;;10388679;28;20213;-71
2021/12/10 01:12:51;;;;;;;10.13;4.70;;;5.10;99.90;;;;;;10394016;28;20220;-72
2021/12/10 01:28:42;;;;;;;9.93;4.00;;;5.00;99.90;;;;;;10405829;28;20220;-70
2021/12/10 01:33:44;;;;;;;9.67;3.50;;;5.10;99.90;;;;;;10395469;28;20221;-71
2021/12/10 01:38:48;;;;;;;14.27;4.60;;;5.10;99.90;;;;;;10410444;28;20232;-71
2021/12/10 01:43:51;;;;;;;14.70;5.13;;;5.10;99.90;;;;;;10410524;28;20304;-71
2021/12/10 01:48:56;;;;;;;14.17;5.30;;;5.00;99.90;;;;;;10393878;28;20227;-71
2021/12/10 01:54:05;;;;;;;11.30;3.80;;;5.00;99.90;;;;;;10414589;28;20299;-71
2021/12/10 01:59:12;;;;;;;13.00;5.33;;;5.00;99.90;;;;;;10413310;28;20620;-71
2021/12/10 02:04:16;;;;;;;11.70;3.53;;;5.10;99.90;;;;;;10411134;28;20235;-71
2021/12/10 02:09:18;;;;;;;9.17;3.57;;;5.10;99.90;;;;;;10400287;28;20286;-70
2021/12/10 02:14:19;;;;;;;10.97;3.77;;;5.10;99.90;;;;;;10409460;28;20302;-70
2021/12/10 02:19:20;;;;;;;11.10;3.27;;;5.10;99.90;;;;;;10404810;28;20228;-70
2021/12/10 02:24:21;;;;;;;7.20;2.90;;;5.10;99.90;;;;;;10395952;28;20213;-71
2021/12/10 02:29:24;;;;;;;5.97;2.97;;;5.10;99.90;;;;;;10381698;28;20221;-70
2021/12/10 02:34:26;;;;;;;6.87;2.93;;;5.10;99.90;;;;;;10387990;28;20277;-72
2021/12/10 02:39:27;;;;;;;8.73;3.60;;;5.10;99.90;;;;;;10394597;28;20231;-72
2021/12/10 02:44:34;;;;;;;9.90;3.83;;;5.10;99.90;;;;;;10418324;28;21013;-71
2021/12/10 02:49:36;;;;;;;11.70;3.77;;;5.00;99.90;;;;;;10416944;28;20246;-71
2021/12/10 02:54:38;;;;;;;8.33;3.87;;;5.00;99.90;;;;;;10415930;28;20220;-72
2021/12/10 02:59:39;;;;;;;7.77;3.30;;;4.90;99.90;;;;;;10398261;28;20311;-71
2021/12/10 03:04:41;;;;;;;9.13;3.13;;;4.80;99.90;;;;;;10413856;28;20626;-71
2021/12/10 03:09:49;;;;;;;9.87;3.13;;;4.60;99.90;;;;;;10414871;28;20677;-72
2021/12/10 03:14:53;;;;;;;8.87;3.67;;;4.40;99.90;;;;;;10414418;28;20224;-72
2021/12/10 03:19:55;;;;;;;5.03;2.73;;;4.20;99.90;;;;;;10413589;28;20584;-72
2021/12/10 03:24:58;;;;;;;10.47;2.93;;;4.10;99.90;;;;;;10410191;28;20204;-70
2021/12/10 03:29:59;;;;;;;10.37;3.37;;;4.00;99.90;;;;;;10410424;28;20953;-70
2021/12/10 03:35:04;;;;;;;17.17;3.90;;;4.00;99.90;;;;;;10415431;28;20275;-70
2021/12/10 03:40:08;;;;;;;8.37;3.27;;;4.00;99.90;;;;;;10415832;28;20221;-72
2021/12/10 03:45:10;;;;;;;11.97;3.77;;;4.00;99.90;;;;;;10397140;28;20186;-72
2021/12/10 03:50:19;;;;;;;8.13;3.10;;;3.90;99.90;;;;;;10401743;28;20599;-70
2021/12/10 03:55:22;;;;;;;10.30;3.40;;;3.70;99.90;;;;;;10416080;28;20213;-70
2021/12/10 04:00:25;;;;;;;9.60;3.10;;;3.70;99.90;;;;;;10413720;28;20242;-70
2021/12/10 04:05:28;;;;;;;6.70;2.70;;;3.60;99.90;;;;;;10413864;28;20216;-72
2021/12/10 04:10:31;;;;;;;7.77;3.23;;;3.50;99.90;;;;;;10414551;28;20668;-71
2021/12/10 04:15:35;;;;;;;7.90;3.13;;;3.50;99.90;;;;;;10401203;28;20255;-71
2021/12/10 04:20:37;;;;;;;6.40;2.97;;;3.40;99.90;;;;;;10412562;28;20221;-71
2021/12/10 04:25:40;;;;;;;9.03;3.40;;;3.40;99.90;;;;;;10401102;28;20221;-71
2021/12/10 04:30:45;;;;;;;10.63;3.70;;;3.30;99.90;;;;;;10405811;28;20883;-71
2021/12/10 04:35:48;;;;;;;9.00;3.57;;;3.30;99.90;;;;;;10411039;28;20232;-73
2021/12/10 04:40:50;;;;;;;7.53;3.00;;;3.30;99.90;;;;;;10411013;28;20251;-70
2021/12/10 04:45:56;;;;;;;7.77;2.87;;;3.20;99.90;;;;;;10412111;28;20219;-71
2021/12/10 04:50:58;;;;;;;6.47;3.10;;;3.10;99.90;;;;;;10413751;28;20563;-71
2021/12/10 04:55:59;;;;;;;4.03;2.47;;;3.00;99.90;;;;;;10413720;28;20319;-71
2021/12/10 05:01:02;;;;;;;5.90;2.43;;;3.00;99.90;;;;;;10414154;28;20220;-70
2021/12/10 05:06:03;;;;;;;6.30;2.70;;;2.90;99.90;;;;;;10412102;28;20223;-68
2021/12/10 05:11:06;;;;;;;9.23;2.57;;;2.80;99.90;;;;;;10409982;28;20223;-70
2021/12/10 05:16:07;;;;;;;9.73;3.20;;;2.80;99.90;;;;;;10410759;28;20990;-69
2021/12/10 05:21:11;;;;;;;6.83;2.97;;;2.70;99.90;;;;;;10385304;28;20660;-70
2021/12/10 05:26:11;;;;;;;7.90;2.77;;;2.70;99.90;;;;;;10410693;28;20220;-69
2021/12/10 05:31:12;;;;;;;10.30;2.77;;;2.70;99.90;;;;;;10398166;28;20707;-69
2021/12/10 05:36:13;;;;;;;10.63;3.30;;;2.60;99.90;;;;;;10408369;28;20327;-69
2021/12/10 05:41:13;;;;;;;12.00;3.30;;;2.60;99.90;;;;;;10406566;28;20205;-69
2021/12/10 05:46:16;;;;;;;9.77;2.83;;;2.60;99.90;;;;;;10397532;28;20222;-70
2021/12/10 05:51:17;;;;;;;7.33;2.77;;;2.50;99.90;;;;;;10409760;28;20228;-69
2021/12/10 05:56:18;;;;;;;9.87;2.90;;;2.50;99.90;;;;;;10411127;28;20263;-68
2021/12/10 06:01:20;;;;;;;5.20;2.63;;;2.40;99.90;;;;;;10405090;28;20679;-71
2021/12/10 06:06:28;;;;;;;9.20;2.70;;;2.30;99.90;;;;;;10400951;28;20224;-71
2021/12/10 06:11:28;;;;;;;7.00;2.67;;;2.30;99.90;;;;;;10390068;28;20221;-70
2021/12/10 06:16:29;;;;;;;9.13;3.30;;;2.20;99.90;;;;;;10418007;28;20235;-69
2021/12/10 06:21:32;;;;;;;7.37;2.87;;;2.20;99.90;;;;;;10405203;28;20220;-70
2021/12/10 06:26:33;;;;;;;5.90;3.00;;;2.20;99.90;;;;;;10413616;28;20278;-70
2021/12/10 06:31:35;;;;;;;5.90;3.03;;;2.20;99.90;;;;;;10416321;28;20216;-69
2021/12/10 06:36:36;;;;;;;8.27;2.53;;;2.20;99.90;;;;;;10404796;28;20228;-72
2021/12/10 06:41:37;;;;;;;10.60;2.73;;;2.20;99.90;;;;;;10416904;28;20684;-71
2021/12/10 06:46:37;;;;;;;8.13;2.27;;;2.20;99.90;;;;;;10401991;28;20363;-70
2021/12/10 06:51:38;;;;;;;11.40;2.60;;;2.20;99.90;;;;;;10415854;28;20224;-71
2021/12/10 06:56:40;;;;;;;6.80;2.27;;;2.10;99.90;;;;;;10414898;28;20854;-70
2021/12/10 07:01:43;;;;;;;3.27;2.20;;;2.20;99.90;;;;;;10415070;28;20226;-70
2021/12/10 07:06:46;;;;;;;4.57;2.57;;;2.10;99.90;;;;;;10414936;28;20334;-70
2021/12/10 07:11:49;;;;;;;4.50;2.80;;;2.10;99.90;;;;;;10415009;28;20667;-70
2021/12/10 07:16:53;;;;;;;7.43;3.50;;;2.10;99.90;;;;;;10419345;28;20232;-70
2021/12/10 07:21:53;;;;;;;3.53;2.63;;;2.10;99.90;;;;;;10411830;28;20212;-70
2021/12/10 07:26:55;;;;;;;5.50;2.70;;;2.10;99.90;;;;;;10394624;28;20699;-70
2021/12/10 07:31:56;;;;;;;6.63;2.87;;;2.10;99.90;;;;;;10400835;28;20303;-71
2021/12/10 07:36:59;;;;;;;5.93;2.50;;;2.10;99.90;;;;;;10413128;28;20770;-70
2021/12/10 07:42:00;;;;;;;6.00;2.60;;;2.20;99.90;;;;;;10413493;28;20231;-70
2021/12/10 07:47:04;;;;;;;5.77;2.23;;;2.40;99.90;;;;;;10409290;28;20223;-70
2021/12/10 07:52:16;;;;;;;7.90;2.90;;;2.60;99.90;;;;;;10413734;28;20225;-71
2021/12/10 07:57:20;;;;;;;4.03;2.60;;;2.80;99.90;;;;;;10415577;28;20247;-70
2021/12/10 08:02:22;;;;;;;5.47;2.73;;;3.00;99.90;;;;;;10415847;28;20216;-70
2021/12/10 08:07:25;;;;;;;6.33;2.40;;;3.20;99.90;;;;;;10409221;28;20578;-72
2021/12/10 08:12:28;;;;;;;7.00;2.67;;;3.40;99.90;;;;;;10404719;28;20224;-73
2021/12/10 08:17:29;;;;;;;4.70;2.43;;;3.60;99.90;;;;;;10409937;28;20711;-70
2021/12/10 08:22:30;;;;;;;7.07;2.63;;;3.70;99.90;;;;;;10409907;28;20815;-70
2021/12/10 08:27:32;;;;;;;8.00;2.50;;;3.90;99.90;;;;;;10395124;28;20212;-70
2021/12/10 08:32:33;;;;;;;4.40;2.40;;;4.20;99.90;;;;;;10411009;28;20220;-69
2021/12/10 08:37:34;;;;;;;4.27;2.50;;;4.50;99.90;;;;;;10411246;28;20309;-70
2021/12/10 08:42:35;;;;;;;7.10;2.17;;;5.20;99.90;;;;;;10411027;28;20220;-72
2021/12/10 08:47:36;;;;;;;4.17;2.13;;;5.70;99.90;;;;;;10409238;28;20216;-71
2021/12/10 08:52:39;;;;;;;7.17;2.23;;;5.90;99.90;;;;;;10410316;28;20223;-70
2021/12/10 08:57:40;;;;;;;6.60;2.10;;;6.20;99.90;;;;;;10403520;28;20232;-72
2021/12/10 09:02:41;;;;;;;5.33;2.50;;;7.20;99.90;;;;;;10410560;28;20219;-70
2021/12/10 09:07:44;;;;;;;6.07;2.53;;;8.00;99.90;;;;;;10409764;28;20263;-72
2021/12/10 09:12:45;;;;;;;6.83;2.63;;;8.70;99.90;;;;;;10409899;28;20213;-72
2021/12/10 09:17:47;;;;;;;3.83;2.10;;;9.00;99.90;;;;;;10409268;28;20297;-72
2021/12/10 09:22:49;;;;;;;3.77;2.27;;;9.40;99.90;;;;;;10383213;28;20220;-72
2021/12/10 09:27:49;;;;;;;6.10;2.53;;;8.90;99.90;;;;;;10400848;28;20215;-72
2021/12/10 09:32:50;;;;;;;7.87;2.60;;;8.20;99.90;;;;;;10401448;28;20217;-73
2021/12/10 09:37:51;;;;;;;4.87;2.50;;;7.50;99.90;;;;;;10400885;28;20252;-71
2021/12/10 09:42:55;;;;;;;6.47;2.80;;;6.80;99.90;;;;;;10407315;28;20722;-71
2021/12/10 09:47:56;;;;;;;5.53;2.57;;;6.20;99.90;;;;;;10401978;28;20216;-71
2021/12/10 09:52:57;;;;;;;8.00;3.47;;;6.00;99.90;;;;;;10402465;28;20220;-72
2021/12/10 09:57:58;;;;;;;8.80;3.73;;;5.90;99.90;;;;;;10407963;28;20224;-72
2021/12/10 10:03:00;;;;;;;8.73;3.53;;;5.90;99.90;;;;;;10425129;28;20233;-72
2021/12/10 10:08:06;;;;;;;12.50;3.27;;;5.70;99.90;;;;;;10413661;28;20232;-72
2021/12/10 10:13:10;;;;;;;9.60;3.13;;;5.70;99.90;;;;;;10395435;28;20755;-72
2021/12/10 10:18:11;;;;;;;12.57;3.13;;;5.40;99.90;;;;;;10393627;28;20248;-72
2021/12/10 10:23:12;;;;;;;6.07;3.10;;;5.40;99.90;;;;;;10400141;28;20217;-72
2021/12/10 10:28:14;;;;;;;10.43;3.43;;;5.50;99.90;;;;;;10389983;28;20611;-72
2021/12/10 10:33:17;;;;;;;7.33;3.10;;;5.70;99.90;;;;;;10409347;28;20600;-72
2021/12/10 10:38:21;;;;;;;9.83;2.83;;;5.70;99.90;;;;;;10410312;28;20236;-72
2021/12/10 10:43:24;;;;;;;8.93;3.30;;;5.70;99.90;;;;;;10410580;28;20231;-72
2021/12/10 10:48:26;;;;;;;6.00;2.23;;;5.90;99.90;;;;;;10407576;28;20232;-72
2021/12/10 10:53:34;;;;;;;3.07;1.40;;;6.30;99.90;;;;;;10411066;28;20221;-72
2021/12/10 10:58:42;;;;;;;2.03;1.47;;;6.40;99.90;;;;;;10414553;28;20233;-72
2021/12/10 11:03:46;;;;;;;5.57;2.57;;;6.40;99.90;;;;;;10416647;28;20335;-73
2021/12/10 11:08:51;;;;;;;4.20;1.90;;;6.30;99.90;;;;;;10424246;28;20243;-72
2021/12/10 11:14:06;;;;;;;3.43;1.57;;;6.40;99.90;;;;;;10415907;28;20266;-72
2021/12/10 11:19:16;;;;;;;3.53;1.60;;;6.40;99.90;;;;;;10413556;28;20240;-72
2021/12/10 11:24:23;;;;;;;3.13;1.80;;;6.40;99.90;;;;;;10419038;28;20227;-72
2021/12/10 11:29:38;;;;;;;3.77;2.23;;;6.40;99.90;;;;;;10399248;28;20243;-72
2021/12/10 11:35:08;;;;;;;4.47;2.20;;;6.40;99.90;;;;;;10399311;28;20248;-72
2021/12/10 11:40:23;;;;;;;5.67;2.37;;;6.30;99.90;;;;;;10421500;28;20226;-72
2021/12/10 11:45:40;;;;;;;4.97;2.20;;;6.20;99.90;;;;;;10421911;28;20216;-73
2021/12/10 11:50:58;;;;;;;5.97;2.50;;;6.00;99.90;;;;;;10415712;28;20209;-74
2021/12/10 11:56:04;;;;;;;5.00;2.47;;;6.10;99.90;;;;;;10413757;28;20231;-73
2021/12/10 12:01:12;;;;;;;4.43;2.13;;;6.00;99.90;;;;;;10414547;28;20553;-73
2021/12/10 12:06:18;;;;;;;5.17;2.47;;;5.90;99.90;;;;;;10412031;28;20224;-73
2021/12/10 12:11:19;;;;;;;4.30;2.40;;;6.00;99.90;;;;;;10411832;28;20258;-73
2021/12/10 12:16:24;;;;;;;3.77;2.77;;;6.10;99.90;;;;;;10412458;28;20244;-72
2021/12/10 12:26:30;;;;;;;4.80;2.50;;;6.10;99.90;;;;;;10394794;28;20213;-71
2021/12/10 12:31:34;;;;;;;3.97;1.90;;;6.10;99.90;;;;;;10407165;28;20220;-73
2021/12/10 12:36:57;;;;;;;3.80;2.10;;;6.00;99.90;;;;;;10413177;28;21003;-72
2021/12/10 12:42:01;;;;;;;7.43;3.93;;;5.90;99.90;;;;;;10389538;28;20588;-71
2021/12/10 12:47:14;;;;;;;3.10;1.93;;;6.00;99.90;;;;;;10410230;28;20216;-72
2021/12/10 12:52:39;;;;;;;2.73;1.70;;;6.00;99.90;;;;;;10411055;28;20229;-72
2021/12/10 12:57:48;;;;;;;5.90;1.77;;;5.90;99.90;;;;;;10392939;28;20315;-72
2021/12/10 13:02:52;;;;;;;3.50;2.10;;;5.70;99.90;;;;;;10410209;28;20221;-72
2021/12/10 13:08:07;;;;;;;3.77;1.73;;;5.70;99.90;;;;;;10410247;28;20672;-72
2021/12/10 13:13:15;;;;;;;4.33;2.13;;;5.50;99.90;;;;;;10396989;28;20219;-72
2021/12/10 13:18:22;;;;;;;5.23;2.03;;;5.40;99.90;;;;;;10409528;28;20259;-73
2021/12/10 13:23:26;;;;;;;5.17;1.70;;;5.40;99.90;;;;;;10409763;28;20230;-72
2021/12/10 13:28:27;;;;;;;3.37;1.70;;;5.30;99.90;;;;;;10384893;28;20216;-74
2021/12/10 13:33:33;;;;;;;3.43;1.80;;;5.30;99.90;;;;;;10408640;28;20753;-73
2021/12/10 13:38:40;;;;;;;7.37;2.03;;;5.40;99.90;;;;;;10414405;28;20573;-72
2021/12/10 13:43:52;;;;;;;2.83;1.40;;;5.40;99.90;;;;;;10408087;28;20271;-73
2021/12/10 13:48:56;;;;;;;3.10;1.70;;;5.50;99.90;;;;;;10402426;28;20621;-73
2021/12/10 13:54:22;;;;;;;3.43;2.00;;;5.40;99.90;;;;;;10409427;28;20252;-72
2021/12/10 13:59:29;;;;;;;2.67;1.60;;;5.20;99.90;;;;;;10408187;28;20247;-72
2021/12/10 14:04:36;;;;;;;7.17;1.77;;;4.90;99.90;;;;;;10409405;28;20736;-73
2021/12/10 14:09:48;;;;;;;2.97;1.70;;;4.50;99.90;;;;;;10407007;28;20224;-73
2021/12/10 14:15:02;;;;;;;3.17;1.60;;;4.30;99.90;;;;;;10403283;28;20216;-73
2021/12/10 14:20:11;;;;;;;3.83;1.90;;;4.10;99.90;;;;;;10411733;28;20247;-73
2021/12/10 14:25:36;;;;;;;5.37;2.47;;;4.00;99.90;;;;;;10393481;28;20256;-72
2021/12/10 14:30:52;;;;;;;2.40;1.70;;;4.00;99.90;;;;;;10400202;28;20212;-73
2021/12/10 14:35:58;;;;;;;2.97;1.57;;;4.00;99.90;;;;;;10411526;28;20231;-73
2021/12/10 14:41:10;;;;;;;3.40;1.87;;;3.90;99.90;;;;;;10417019;28;20271;-72
2021/12/10 14:46:16;;;;;;;5.27;2.27;;;3.70;99.90;;;;;;10415874;28;20239;-72
2021/12/10 14:51:18;;;;;;;4.57;2.50;;;3.70;99.90;;;;;;10414622;28;20224;-72
2021/12/10 14:56:29;;;;;;;4.17;1.80;;;3.90;99.90;;;;;;10402824;28;20707;-72
2021/12/10 15:01:32;;;;;;;4.17;2.30;;;4.00;99.90;;;;;;10408946;28;20287;-72
2021/12/10 15:06:33;;;;;;;7.07;2.40;;;3.90;99.90;;;;;;10416150;28;20227;-72
2021/12/10 15:11:47;;;;;;;3.63;2.43;;;3.80;99.90;;;;;;10415209;28;20282;-72
2021/12/10 15:17:04;;;;;;;3.90;2.70;;;3.90;99.90;;;;;;10403196;28;20271;-72
2021/12/10 15:22:13;;;;;;;4.40;2.80;;;3.90;99.90;;;;;;10408254;28;20227;-72
2021/12/10 15:27:38;;;;;;;3.17;2.37;;;3.90;99.90;;;;;;10413807;28;20240;-72
2021/12/10 15:32:44;;;;;;;6.53;2.70;;;3.90;99.90;;;;;;10385371;28;20220;-72
2021/12/10 15:38:07;;;;;;;6.40;2.90;;;3.90;99.90;;;;;;10417636;28;20275;-72
2021/12/10 15:43:23;;;;;;;4.53;2.57;;;3.90;99.90;;;;;;10417017;28;20228;-72
2021/12/10 15:48:26;;;;;;;5.43;2.90;;;3.90;99.90;;;;;;10409806;28;20269;-73
2021/12/10 15:53:42;;;;;;;5.70;3.20;;;3.80;99.90;;;;;;10403176;28;20220;-72
2021/12/10 15:58:43;;;;;;;5.43;2.70;;;3.70;99.90;;;;;;10419059;28;20234;-72
2021/12/10 16:03:54;;;;;;;5.33;2.97;;;3.60;99.90;;;;;;10419431;28;20637;-72
2021/12/10 16:09:01;;;;;;;5.73;3.33;;;3.60;99.90;;;;;;10417516;28;20212;-72
2021/12/10 16:14:04;;;;;;;7.07;3.57;;;3.80;99.90;;;;;;10419312;28;20244;-73
2021/12/10 16:19:21;;;;;;;7.10;3.60;;;3.70;99.90;;;;;;10412652;28;20319;-73
2021/12/10 16:24:32;;;;;;;7.87;4.23;;;3.60;99.90;;;;;;10403025;28;20213;-72
2021/12/10 16:29:45;;;;;;;6.80;3.93;;;3.40;99.90;;;;;;10399924;28;20750;-72
2021/12/10 16:34:48;;;;;;;7.43;4.33;;;3.40;99.90;;;;;;10382275;28;20238;-71
2021/12/10 16:39:50;;;;;;;6.03;4.60;;;3.30;99.90;;;;;;10388292;28;20695;-72
2021/12/10 16:44:52;;;;;;;5.57;3.60;;;3.30;99.90;;;;;;10407037;28;20213;-72
2021/12/10 16:49:54;;;;;;;4.20;3.70;;;3.30;99.90;;;;;;10390496;28;20217;-72
2021/12/10 16:54:59;;;;;;;5.10;4.00;;;3.30;99.90;;;;;;10386828;28;20224;-70
2021/12/10 17:00:01;;;;;;;6.93;4.30;;;3.30;99.90;;;;;;10376828;28;20217;-71
2021/12/10 17:05:12;;;;;;;8.03;4.67;;;3.20;99.90;;;;;;10385931;28;20256;-71
2021/12/10 17:10:28;;;;;;;6.47;4.20;;;3.20;99.90;;;;;;10385701;28;20217;-71
2021/12/10 17:15:29;;;;;;;7.00;4.47;;;3.20;99.90;;;;;;10401215;28;20220;-71
2021/12/10 17:20:38;;;;;;;5.63;4.20;;;3.30;99.90;;;;;;10391581;28;20239;-70
2021/12/10 17:25:45;;;;;;;6.27;4.50;;;3.40;99.90;;;;;;10391179;28;20687;-70
2021/12/10 17:30:51;;;;;;;8.13;4.97;;;3.50;99.90;;;;;;10390303;28;20217;-70
2021/12/10 17:36:04;;;;;;;7.40;4.80;;;3.70;99.90;;;;;;10386706;28;20834;-71
2021/12/10 17:41:11;;;;;;;6.83;4.93;;;3.70;99.90;;;;;;10392276;28;20220;-70
2021/12/10 17:46:20;;;;;;;7.20;4.70;;;3.80;99.90;;;;;;10399887;28;20227;-72
2021/12/10 17:51:31;;;;;;;8.70;6.87;;;3.90;99.90;;;;;;10390988;28;20228;-70
2021/12/10 17:56:32;;;;;;;9.70;7.70;;;3.90;99.90;;;;;;10393204;28;20224;-71
2021/12/10 18:01:43;;;;;;;9.03;6.63;;;4.10;99.90;;;;;;10389563;28;20684;-70
2021/12/10 18:06:49;;;;;;;9.70;7.00;;;4.10;99.90;;;;;;10399760;28;20692;-71
2021/12/10 18:11:57;;;;;;;12.13;8.80;;;4.10;99.90;;;;;;10403408;28;20366;-71
2021/12/10 18:16:58;;;;;;;12.03;9.23;;;4.00;99.90;;;;;;10398786;28;20954;-71
2021/12/10 18:22:02;;;;;;;13.00;9.77;;;4.00;99.90;;;;;;10395819;28;20227;-71
2021/12/10 18:27:05;;;;;;;12.40;9.13;;;4.10;99.90;;;;;;10399989;28;20216;-71
2021/12/10 18:32:11;;;;;;;9.83;8.17;;;4.10;99.90;;;;;;10398879;28;20228;-71
2021/12/10 18:37:19;;;;;;;10.40;8.33;;;4.00;99.90;;;;;;10393702;28;20236;-70
2021/12/10 18:42:27;;;;;;;10.53;8.10;;;3.90;99.90;;;;;;10394372;28;20221;-71
2021/12/10 18:47:28;;;;;;;10.37;7.87;;;3.90;99.90;;;;;;10390431;28;20304;-71
2021/12/10 18:52:29;;;;;;;11.67;8.60;;;4.00;99.90;;;;;;10406481;28;20571;-70
2021/12/10 18:57:33;;;;;;;9.43;7.53;;;4.10;99.90;;;;;;10392944;28;20278;-70
2021/12/10 19:02:37;;;;;;;11.33;8.23;;;4.00;99.90;;;;;;10393633;28;20224;-71
2021/12/10 19:07:59;;;;;;;11.57;9.07;;;4.10;99.90;;;;;;10406265;28;20279;-73
2021/12/10 19:13:11;;;;;;;18.33;12.67;;;4.10;99.90;;;;;;10408410;28;20221;-71
2021/12/10 19:18:15;;;;;;;13.90;10.60;;;4.30;99.90;;;;;;10394611;28;20720;-72
2021/12/10 19:23:21;;;;;;;14.33;10.80;;;4.20;99.90;;;;;;10396016;28;20217;-71
2021/12/10 19:28:34;;;;;;;16.00;11.80;;;4.30;99.90;;;;;;10406331;28;20282;-71
2021/12/10 19:33:40;;;;;;;15.20;11.00;;;4.30;99.90;;;;;;10414086;28;20228;-70
2021/12/10 19:38:51;;;;;;;16.20;11.00;;;4.20;99.90;;;;;;10412072;28;20654;-70
2021/12/10 19:44:00;;;;;;;13.40;10.80;;;4.20;99.90;;;;;;10414320;28;20584;-70
2021/12/10 19:49:09;;;;;;;15.27;11.40;;;4.20;99.90;;;;;;10386763;28;20263;-72
2021/12/10 19:54:30;;;;;;;12.97;11.23;;;4.20;99.90;;;;;;10392469;28;20220;-71
2021/12/10 20:00:01;;;;;;;13.10;10.97;;;4.10;99.90;;;;;;10395938;28;20231;-73
2021/12/10 20:05:23;;;;;;;17.30;12.70;;;4.10;99.90;;;;;;10391733;28;20217;-71
2021/12/10 20:10:40;;;;;;;17.50;13.37;;;4.10;99.90;;;;;;10394970;28;20239;-71
2021/12/10 20:16:09;;;;;;;16.47;13.57;;;4.10;99.90;;;;;;10394595;28;20347;-70
2021/12/10 20:21:12;;;;;;;17.73;14.13;;;4.00;99.90;;;;;;10409050;28;20216;-72
2021/12/10 20:26:30;;;;;;;18.40;15.13;;;3.90;99.90;;;;;;10405183;28;20323;-72
2021/12/10 20:31:48;;;;;;;16.83;13.80;;;3.90;99.90;;;;;;10400918;28;20235;-72
2021/12/10 20:36:59;;;;;;;18.43;14.00;;;3.90;99.90;;;;;;10380895;28;20248;-71
2021/12/10 20:42:05;;;;;;;15.63;13.37;;;3.80;99.90;;;;;;10415088;28;20266;-71
2021/12/10 20:47:20;;;;;;;17.30;13.23;;;3.80;99.90;;;;;;10398878;28;20295;-71
2021/12/10 20:52:28;;;;;;;17.77;13.67;;;3.80;99.90;;;;;;10409473;28;20228;-72
2021/12/10 20:57:34;;;;;;;16.63;14.27;;;3.80;99.90;;;;;;10391596;28;20632;-72
2021/12/10 21:02:41;;;;;;;15.73;13.03;;;3.80;99.90;;;;;;10411218;28;20279;-71
2021/12/10 21:07:47;;;;;;;16.10;12.77;;;3.80;99.90;;;;;;10397671;28;20221;-71
2021/12/10 21:12:53;;;;;;;17.10;13.37;;;3.80;99.90;;;;;;10405731;28;20217;-73
2021/12/10 21:18:03;;;;;;;17.37;13.33;;;3.90;99.90;;;;;;10405235;28;20295;-72
2021/12/10 21:23:11;;;;;;;14.90;12.90;;;3.80;99.90;;;;;;10395922;28;20227;-74
2021/12/10 21:28:17;;;;;;;13.70;12.07;;;3.80;99.90;;;;;;10403753;28;20628;-73
2021/12/10 21:33:36;;;;;;;14.67;12.00;;;3.80;99.90;;;;;;10413950;28;20240;-73
2021/12/10 21:38:39;;;;;;;14.97;12.37;;;3.80;99.90;;;;;;10412181;28;20224;-72
2021/12/10 21:43:43;;;;;;;15.13;12.43;;;3.90;99.90;;;;;;10394888;28;20209;-72
2021/12/10 21:48:47;;;;;;;13.60;11.87;;;3.90;99.90;;;;;;10399792;28;20240;-73
2021/12/10 21:53:50;;;;;;;15.97;13.20;;;3.90;99.90;;;;;;10396796;28;20319;-73
2021/12/10 21:59:08;;;;;;;15.30;12.43;;;3.90;99.90;;;;;;10405003;28;20259;-72
2021/12/10 22:04:36;;;;;;;16.47;13.43;;;3.80;99.90;;;;;;10414263;28;20227;-71
2021/12/10 22:09:43;;;;;;;17.57;13.60;;;3.80;99.90;;;;;;10407286;28;20657;-71
2021/12/10 22:14:49;;;;;;;18.00;14.10;;;3.80;99.90;;;;;;10385731;28;20239;-72
2021/12/10 22:19:55;;;;;;;18.57;15.13;;;3.70;99.90;;;;;;10390817;28;20225;-71
2021/12/10 22:25:00;;;;;;;20.10;15.50;;;3.60;99.90;;;;;;10413960;28;20248;-71
2021/12/10 22:30:11;;;;;;;20.30;15.77;;;3.50;99.90;;;;;;10407648;28;21028;-73
2021/12/10 22:35:16;;;;;;;20.53;15.03;;;3.60;99.90;;;;;;10400586;28;20280;-72
2021/12/10 22:40:40;;;;;;;22.50;15.83;;;3.60;99.90;;;;;;10394451;28;20237;-71
2021/12/10 22:46:12;;;;;;;21.43;15.93;;;3.70;99.90;;;;;;10394124;28;20240;-72
2021/12/10 22:51:18;;;;;;;22.57;15.43;;;3.70;99.90;;;;;;10374774;22;20248;-73
2021/12/10 22:56:27;;;;;;;23.73;16.73;;;3.70;99.90;;;;;;10400434;28;20229;-73
2021/12/10 23:02:07;;;;;;;22.60;15.90;;;3.70;99.90;;;;;;10389035;28;20216;-73
2021/12/10 23:07:32;;;;;;;25.37;17.33;;;3.60;99.90;;;;;;10379046;28;20236;-74
2021/12/10 23:13:14;;;;;;;24.47;16.03;;;3.70;99.90;;;;;;10416995;28;20240;-71
2021/12/10 23:18:19;;;;;;;22.70;15.30;;;3.70;99.90;;;;;;10373018;28;20626;-73
2021/12/10 23:23:20;;;;;;;22.80;16.10;;;3.70;99.90;;;;;;10394790;28;20213;-73
2021/12/10 23:28:26;;;;;;;23.30;16.87;;;3.70;99.90;;;;;;10392386;28;20247;-74
2021/12/10 23:33:34;;;;;;;26.87;16.77;;;3.70;99.90;;;;;;10401860;28;22364;-73
2021/12/10 23:38:49;;;;;;;28.30;17.90;;;3.70;99.90;;;;;;10404820;28;20810;-73
2021/12/10 23:44:13;;;;;;;22.73;16.10;;;3.80;99.90;;;;;;10390477;28;20228;-72
2021/12/10 23:49:25;;;;;;;23.93;16.90;;;3.80;99.90;;;;;;10397323;28;20228;-70
2021/12/10 23:54:36;;;;;;;23.83;16.83;;;3.80;99.90;;;;;;10393893;28;20236;-71
2021/12/10 23:59:40;;;;;;;24.70;16.27;;;3.70;99.90;;;;;;10398137;28;20244;-72
